createdAt,value
2023-09-10T00:01:34.520Z,97061.88
2023-09-10T00:04:03.424Z,97069.00
2023-09-10T00:06:34.887Z,97071.91
2023-09-10T00:09:04.508Z,97058.94
2023-09-10T00:11:31.129Z,97066.41
2023-09-10T00:13:57.819Z,97066.63
2023-09-10T00:16:26.739Z,97068.41
2023-09-10T00:18:55.776Z,97061.41
2023-09-10T00:21:22.340Z,97060.72
2023-09-10T00:23:53.633Z,97063.44
2023-09-10T00:26:27.248Z,97062.78
2023-09-10T00:28:57.018Z,97066.56
2023-09-10T00:31:23.714Z,97061.25
2023-09-10T00:33:52.665Z,97070.09
2023-09-10T00:36:19.241Z,97063.09
2023-09-10T00:38:45.911Z,97066.78
2023-09-10T00:41:14.898Z,97074.19
2023-09-10T00:43:41.502Z,97071.03
2023-09-10T00:46:08.406Z,97071.28
2023-09-10T00:48:38.307Z,97078.56
2023-09-10T00:51:05.266Z,97073.19
2023-09-10T00:53:32.464Z,97073.34
2023-09-10T00:55:59.263Z,97062.94
2023-09-10T00:58:31.250Z,97068.28
2023-09-10T01:00:59.625Z,97068.44
2023-09-10T01:03:33.748Z,97063.88
2023-09-10T01:06:00.637Z,97064.34
2023-09-10T01:08:27.477Z,97064.69
2023-09-10T01:11:07.162Z,97063.47
2023-09-10T01:14:01.550Z,97064.69
2023-09-10T01:16:40.051Z,97070.38
2023-09-10T01:19:27.361Z,97070.66
2023-09-10T01:22:06.773Z,97072.66
2023-09-10T01:24:52.515Z,97063.13
2023-09-10T01:27:19.753Z,97069.19
2023-09-10T01:29:48.615Z,97069.03
2023-09-10T01:32:32.434Z,97068.63
2023-09-10T01:35:20.011Z,97068.16
2023-09-10T01:37:57.094Z,97070.41
2023-09-10T01:40:31.761Z,97070.72
2023-09-10T01:43:00.643Z,97075.75
2023-09-10T01:45:28.054Z,97076.41
2023-09-10T01:47:57.404Z,97066.03
2023-09-10T01:50:24.392Z,97073.41
2023-09-10T01:52:51.110Z,97069.66
2023-09-10T01:55:17.834Z,97077.53
2023-09-10T01:57:49.020Z,97082.56
2023-09-10T02:00:16.019Z,97079.81
2023-09-10T02:02:42.811Z,97070.34
2023-09-10T02:05:09.610Z,97067.63
2023-09-10T02:07:38.357Z,97075.09
2023-09-10T02:10:07.734Z,97066.94
2023-09-10T02:12:39.899Z,97072.59
2023-09-10T02:15:08.410Z,97076.41
2023-09-10T02:17:35.138Z,97076.25
2023-09-10T02:20:10.945Z,97080.06
2023-09-10T02:22:43.427Z,97077.78
2023-09-10T02:25:10.337Z,97080.53
2023-09-10T02:27:36.999Z,97081.47
2023-09-10T02:30:09.592Z,97081.75
2023-09-10T02:32:37.240Z,97082.66
2023-09-10T02:35:04.624Z,97079.06
2023-09-10T02:37:34.047Z,97084.88
2023-09-10T02:40:03.068Z,97079.50
2023-09-10T02:42:31.990Z,97085.63
2023-09-10T02:45:00.860Z,97079.81
2023-09-10T02:47:29.832Z,97079.66
2023-09-10T02:49:56.814Z,97081.38
2023-09-10T02:52:25.999Z,97082.41
2023-09-10T02:54:55.078Z,97081.38
2023-09-10T02:57:24.019Z,97082.28
2023-09-10T02:59:50.610Z,97083.66
2023-09-10T03:02:19.690Z,97089.91
2023-09-10T03:04:46.436Z,97082.63
2023-09-10T03:07:13.054Z,97080.03
2023-09-10T03:09:42.607Z,97087.94
2023-09-10T03:12:31.418Z,97082.16
2023-09-10T03:14:58.104Z,97084.72
2023-09-10T03:17:27.250Z,97092.34
2023-09-10T03:19:56.451Z,97085.03
2023-09-10T03:22:23.219Z,97086.41
2023-09-10T03:24:52.232Z,97086.41
2023-09-10T03:27:18.912Z,97089.78
2023-09-10T03:29:48.424Z,97090.22
2023-09-10T03:32:16.383Z,97087.94
2023-09-10T03:34:45.010Z,97085.66
2023-09-10T03:37:11.770Z,97086.41
2023-09-10T03:39:43.288Z,97086.41
2023-09-10T03:42:09.906Z,97088.72
2023-09-10T03:44:36.566Z,97085.38
2023-09-10T03:47:08.186Z,97082.47
2023-09-10T03:49:34.859Z,97087.53
2023-09-10T03:52:17.456Z,97092.72
2023-09-10T03:54:46.488Z,97089.66
2023-09-10T03:57:16.043Z,97092.72
2023-09-10T03:59:42.813Z,97087.25
2023-09-10T04:02:09.955Z,97090.88
2023-09-10T04:04:38.842Z,97090.88
2023-09-10T04:07:08.205Z,97092.56
2023-09-10T04:09:37.215Z,97089.09
2023-09-10T04:12:06.677Z,97083.75
2023-09-10T04:14:35.762Z,97090.44
2023-09-10T04:17:02.569Z,97092.13
2023-09-10T04:19:31.390Z,97089.38
2023-09-10T04:21:58.092Z,97096.53
2023-09-10T04:24:27.029Z,97095.91
2023-09-10T04:26:56.205Z,97099.28
2023-09-10T04:29:26.066Z,97102.19
2023-09-10T04:31:52.752Z,97105.81
2023-09-10T04:34:19.455Z,97106.25
2023-09-10T04:36:48.886Z,97106.75
2023-09-10T04:39:20.632Z,97106.28
2023-09-10T04:41:47.973Z,97109.78
2023-09-10T04:44:16.978Z,97096.53
2023-09-10T04:46:46.229Z,97106.44
2023-09-10T04:49:13.112Z,97107.22
2023-09-10T04:51:42.567Z,97098.69
2023-09-10T04:54:11.478Z,97097.91
2023-09-10T04:56:38.231Z,97109.03
2023-09-10T04:59:04.875Z,97109.16
2023-09-10T05:01:33.786Z,97106.72
2023-09-10T05:04:00.490Z,97106.59
2023-09-10T05:06:27.169Z,97118.31
2023-09-10T05:08:53.787Z,97119.22
2023-09-10T05:11:20.925Z,97121.81
2023-09-10T05:13:50.130Z,97116.34
2023-09-10T05:16:16.821Z,97124.56
2023-09-10T05:18:48.946Z,97122.44
2023-09-10T05:21:18.507Z,97128.22
2023-09-10T05:23:45.078Z,97127.91
2023-09-10T05:26:11.721Z,97127.00
2023-09-10T05:28:38.623Z,97131.44
2023-09-10T05:31:09.039Z,97132.47
2023-09-10T05:33:40.238Z,97129.72
2023-09-10T05:36:07.077Z,97137.06
2023-09-10T05:38:33.685Z,97129.72
2023-09-10T05:41:08.689Z,97139.63
2023-09-10T05:43:37.762Z,97133.56
2023-09-10T05:46:07.324Z,97130.81
2023-09-10T05:48:34.661Z,97140.09
2023-09-10T05:51:01.419Z,97141.16
2023-09-10T05:53:28.858Z,97133.84
2023-09-10T05:55:55.655Z,97137.06
2023-09-10T05:58:25.751Z,97132.97
2023-09-10T06:00:53.526Z,97142.69
2023-09-10T06:03:20.334Z,97144.22
2023-09-10T06:05:49.491Z,97147.84
2023-09-10T06:08:18.410Z,97150.13
2023-09-10T06:10:47.351Z,97153.34
2023-09-10T06:13:16.591Z,97155.47
2023-09-10T06:15:44.167Z,97152.72
2023-09-10T06:18:14.280Z,97154.41
2023-09-10T06:20:45.746Z,97152.72
2023-09-10T06:23:12.466Z,97154.72
2023-09-10T06:25:39.217Z,97158.50
2023-09-10T06:28:09.059Z,97154.53
2023-09-10T06:30:35.643Z,97160.28
2023-09-10T06:33:06.887Z,97144.59
2023-09-10T06:35:35.389Z,97147.78
2023-09-10T06:38:02.213Z,97148.22
2023-09-10T06:40:31.778Z,97156.56
2023-09-10T06:42:58.357Z,97155.53
2023-09-10T06:45:27.164Z,97166.78
2023-09-10T06:47:54.001Z,97155.03
2023-09-10T06:50:23.179Z,97157.88
2023-09-10T06:52:49.853Z,97159.22
2023-09-10T06:55:18.764Z,97164.69
2023-09-10T06:57:48.388Z,97163.13
2023-09-10T07:00:15.198Z,97161.28
2023-09-10T07:02:44.037Z,97158.41
2023-09-10T07:05:11.238Z,97153.91
2023-09-10T07:07:38.024Z,97160.03
2023-09-10T07:10:04.805Z,97167.00
2023-09-10T07:12:31.475Z,97166.84
2023-09-10T07:15:00.298Z,97151.47
2023-09-10T07:17:26.969Z,97164.94
2023-09-10T07:19:56.039Z,97162.47
2023-09-10T07:22:23.023Z,97161.19
2023-09-10T07:24:49.590Z,97161.06
2023-09-10T07:27:20.915Z,97165.25
2023-09-10T07:29:49.785Z,97164.16
2023-09-10T07:32:18.649Z,97172.03
2023-09-10T07:34:45.333Z,97169.84
2023-09-10T07:37:12.450Z,97164.53
2023-09-10T07:39:39.175Z,97162.94
2023-09-10T07:42:05.834Z,97165.16
2023-09-10T07:44:35.054Z,97167.41
2023-09-10T07:47:03.909Z,97163.56
2023-09-10T07:49:33.112Z,97168.38
2023-09-10T07:51:59.691Z,97160.97
2023-09-10T07:54:26.309Z,97165.84
2023-09-10T07:56:52.891Z,97166.91
2023-09-10T07:59:19.562Z,97162.41
2023-09-10T08:01:48.818Z,97167.59
2023-09-10T08:04:18.260Z,97161.81
2023-09-10T08:06:45.218Z,97164.31
2023-09-10T08:09:14.893Z,97159.97
2023-09-10T08:11:43.944Z,97166.34
2023-09-10T08:14:15.365Z,97168.72
2023-09-10T08:16:42.059Z,97163.59
2023-09-10T08:19:08.695Z,97170.47
2023-09-10T08:21:35.328Z,97170.28
2023-09-10T08:24:04.620Z,97164.81
2023-09-10T08:26:33.671Z,97167.38
2023-09-10T08:29:02.549Z,97166.66
2023-09-10T08:31:31.476Z,97160.25
2023-09-10T08:34:02.734Z,97164.06
2023-09-10T08:36:31.917Z,97168.25
2023-09-10T08:39:01.843Z,97157.81
2023-09-10T08:41:57.049Z,97162.34
2023-09-10T08:44:27.896Z,97157.06
2023-09-10T08:47:01.735Z,97160.31
2023-09-10T08:49:30.560Z,97164.38
2023-09-10T08:52:00.074Z,97158.81
2023-09-10T08:54:26.955Z,97153.75
2023-09-10T08:56:55.603Z,97155.28
2023-09-10T08:59:25.329Z,97164.09
2023-09-10T09:01:52.507Z,97150.25
2023-09-10T09:04:21.900Z,97156.53
2023-09-10T09:06:56.468Z,97151.72
2023-09-10T09:09:27.444Z,97144.19
2023-09-10T09:11:57.545Z,97149.41
2023-09-10T09:14:30.486Z,97143.81
2023-09-10T09:16:59.577Z,97150.22
2023-09-10T09:19:31.427Z,97149.69
2023-09-10T09:22:02.659Z,97142.78
2023-09-10T09:24:32.550Z,97132.66
2023-09-10T09:27:00.916Z,97130.38
2023-09-10T09:29:29.888Z,97124.31
2023-09-10T09:31:56.544Z,97131.09
2023-09-10T09:34:26.067Z,97126.75
2023-09-10T09:36:55.457Z,97124.25
2023-09-10T09:39:22.437Z,97130.91
2023-09-10T09:41:54.302Z,97128.56
2023-09-10T09:44:23.432Z,97125.53
2023-09-10T09:46:53.256Z,97123.50
2023-09-10T09:49:19.900Z,97121.41
2023-09-10T09:51:46.541Z,97118.69
2023-09-10T09:54:13.234Z,97121.56
2023-09-10T09:56:43.926Z,97117.38
2023-09-10T09:59:13.787Z,97115.06
2023-09-10T10:01:40.817Z,97109.78
2023-09-10T10:04:08.195Z,97112.75
2023-09-10T10:06:48.671Z,97104.53
2023-09-10T10:09:19.677Z,97099.97
2023-09-10T10:11:49.284Z,97106.69
2023-09-10T10:14:16.815Z,97098.69
2023-09-10T10:16:51.050Z,97102.84
2023-09-10T10:19:18.696Z,97099.09
2023-09-10T10:21:48.585Z,97095.00
2023-09-10T10:24:16.635Z,97082.66
2023-09-10T10:26:47.391Z,97092.50
2023-09-10T10:29:20.642Z,97084.63
2023-09-10T10:31:53.456Z,97080.34
2023-09-10T10:34:24.417Z,97083.28
2023-09-10T10:37:23.506Z,97076.34
2023-09-10T10:40:14.912Z,97078.91
2023-09-10T10:42:52.074Z,97070.03
2023-09-10T10:45:21.629Z,97070.59
2023-09-10T10:47:52.954Z,97059.72
2023-09-10T10:50:28.770Z,97068.25
2023-09-10T10:53:12.487Z,97061.06
2023-09-10T10:55:42.757Z,97061.81
2023-09-10T10:58:09.516Z,97060.75
2023-09-10T11:00:36.211Z,97054.97
2023-09-10T11:03:17.278Z,97059.06
2023-09-10T11:05:53.784Z,97059.81
2023-09-10T11:08:39.912Z,97061.66
2023-09-10T11:11:29.214Z,97052.84
2023-09-10T11:14:04.095Z,97049.53
2023-09-10T11:16:44.099Z,97040.66
2023-09-10T11:19:46.584Z,97037.63
2023-09-10T11:22:13.453Z,97036.34
2023-09-10T11:24:41.680Z,97038.38
2023-09-10T11:27:23.700Z,97035.50
2023-09-10T11:30:11.340Z,97035.50
2023-09-10T11:32:43.518Z,97023.03
2023-09-10T11:35:23.327Z,97030.00
2023-09-10T11:37:52.135Z,97033.88
2023-09-10T11:40:20.381Z,97009.69
2023-09-10T11:42:48.726Z,97016.59
2023-09-10T11:45:16.460Z,97012.19
2023-09-10T11:47:47.684Z,97016.59
2023-09-10T11:50:20.333Z,97010.00
2023-09-10T11:52:47.067Z,97015.16
2023-09-10T11:55:13.770Z,97010.19
2023-09-10T11:57:43.189Z,97007.09
2023-09-10T12:00:17.813Z,97003.88
2023-09-10T12:02:46.620Z,97004.84
2023-09-10T12:05:13.640Z,96999.09
2023-09-10T12:07:45.194Z,96994.50
2023-09-10T12:10:13.765Z,97005.03
2023-09-10T12:12:44.617Z,96996.66
2023-09-10T12:15:14.240Z,96999.38
2023-09-10T12:17:41.558Z,96989.34
2023-09-10T12:20:09.557Z,96993.53
2023-09-10T12:22:36.393Z,96994.56
2023-09-10T12:25:06.318Z,96980.84
2023-09-10T12:27:38.929Z,96978.44
2023-09-10T12:30:06.664Z,96978.16
2023-09-10T12:32:38.352Z,96981.44
2023-09-10T12:35:05.498Z,96978.66
2023-09-10T12:37:32.534Z,96973.44
2023-09-10T12:40:05.883Z,96976.72
2023-09-10T12:42:34.936Z,96970.38
2023-09-10T12:45:03.857Z,96976.31
2023-09-10T12:47:30.742Z,96981.16
2023-09-10T12:49:59.764Z,96968.41
2023-09-10T12:52:29.667Z,96969.16
2023-09-10T12:54:56.346Z,96969.69
2023-09-10T12:57:22.920Z,96961.25
2023-09-10T12:59:58.962Z,96962.75
2023-09-10T13:02:27.265Z,96953.47
2023-09-10T13:04:54.731Z,96949.59
2023-09-10T13:07:21.472Z,96941.59
2023-09-10T13:09:53.135Z,96946.63
2023-09-10T13:12:26.036Z,96937.97
2023-09-10T13:14:52.763Z,96934.28
2023-09-10T13:17:19.524Z,96937.09
2023-09-10T13:19:48.628Z,96942.09
2023-09-10T13:22:15.325Z,96937.78
2023-09-10T13:24:42.417Z,96933.75
2023-09-10T13:27:09.073Z,96936.16
2023-09-10T13:29:35.874Z,96925.47
2023-09-10T13:32:02.579Z,96910.75
2023-09-10T13:34:32.732Z,96915.56
2023-09-10T13:37:04.566Z,96919.06
2023-09-10T13:39:33.369Z,96914.28
2023-09-10T13:41:59.987Z,96915.78
2023-09-10T13:44:26.599Z,96914.28
2023-09-10T13:46:53.444Z,96911.28
2023-09-10T13:49:20.262Z,96905.53
2023-09-10T13:51:49.196Z,96907.72
2023-09-10T13:54:15.890Z,96908.34
2023-09-10T13:56:44.871Z,96909.91
2023-09-10T13:59:18.972Z,96910.75
2023-09-10T14:01:47.629Z,96908.13
2023-09-10T14:04:20.717Z,96902.38
2023-09-10T14:06:52.116Z,96902.22
2023-09-10T14:09:21.228Z,96908.38
2023-09-10T14:11:47.877Z,96905.94
2023-09-10T14:14:16.993Z,96904.84
2023-09-10T14:16:43.918Z,96904.09
2023-09-10T14:19:10.772Z,96906.09
2023-09-10T14:21:39.452Z,96898.69
2023-09-10T14:24:06.381Z,96898.72
2023-09-10T14:26:37.870Z,96892.91
2023-09-10T14:29:07.038Z,96895.88
2023-09-10T14:31:36.098Z,96892.16
2023-09-10T14:34:05.837Z,96880.38
2023-09-10T14:36:32.498Z,96889.53
2023-09-10T14:39:03.427Z,96888.13
2023-09-10T14:41:32.401Z,96886.81
2023-09-10T14:43:59.151Z,96881.22
2023-09-10T14:46:25.903Z,96876.56
2023-09-10T14:48:52.542Z,96875.88
2023-09-10T14:51:21.462Z,96880.53
2023-09-10T14:53:52.843Z,96887.59
2023-09-10T14:56:19.511Z,96879.78
2023-09-10T14:58:46.119Z,96885.69
2023-09-10T15:01:15.879Z,96881.00
2023-09-10T15:03:42.922Z,96873.38
2023-09-10T15:06:12.155Z,96882.13
2023-09-10T15:08:38.843Z,96876.19
2023-09-10T15:11:05.546Z,96880.69
2023-09-10T15:13:32.574Z,96878.16
2023-09-10T15:15:59.317Z,96878.56
2023-09-10T15:18:26.142Z,96873.69
2023-09-10T15:20:52.779Z,96867.88
2023-09-10T15:23:21.952Z,96873.50
2023-09-10T15:25:49.196Z,96868.50
2023-09-10T15:28:18.299Z,96869.28
2023-09-10T15:30:44.945Z,96863.97
2023-09-10T15:33:13.835Z,96861.75
2023-09-10T15:35:43.394Z,96860.31
2023-09-10T15:38:12.258Z,96862.84
2023-09-10T15:40:43.611Z,96865.31
2023-09-10T15:43:10.207Z,96857.84
2023-09-10T15:45:42.177Z,96863.84
2023-09-10T15:48:08.840Z,96867.03
2023-09-10T15:50:35.705Z,96858.19
2023-09-10T15:53:02.632Z,96856.47
2023-09-10T15:55:31.963Z,96853.94
2023-09-10T15:57:58.571Z,96854.94
2023-09-10T16:00:30.027Z,96854.50
2023-09-10T16:02:59.953Z,96859.41
2023-09-10T16:05:27.077Z,96849.63
2023-09-10T16:07:53.745Z,96857.28
2023-09-10T16:10:21.810Z,96849.44
2023-09-10T16:12:50.908Z,96843.78
2023-09-10T16:15:22.487Z,96852.53
2023-09-10T16:17:52.150Z,96853.47
2023-09-10T16:20:18.856Z,96858.66
2023-09-10T16:22:45.644Z,96854.16
2023-09-10T16:25:12.554Z,96857.13
2023-09-10T16:27:44.046Z,96854.44
2023-09-10T16:30:14.071Z,96860.00
2023-09-10T16:32:41.717Z,96851.78
2023-09-10T16:35:11.277Z,96849.84
2023-09-10T16:37:39.149Z,96854.97
2023-09-10T16:40:06.671Z,96847.78
2023-09-10T16:42:35.880Z,96854.59
2023-09-10T16:45:02.616Z,96862.03
2023-09-10T16:47:29.314Z,96859.38
2023-09-10T16:49:58.572Z,96864.69
2023-09-10T16:52:25.201Z,96863.63
2023-09-10T16:54:51.822Z,96856.34
2023-09-10T16:57:18.443Z,96861.03
2023-09-10T16:59:48.627Z,96862.16
2023-09-10T17:02:15.756Z,96859.81
2023-09-10T17:04:44.813Z,96858.19
2023-09-10T17:07:11.757Z,96851.34
2023-09-10T17:09:40.847Z,96853.97
2023-09-10T17:12:09.977Z,96856.22
2023-09-10T17:14:36.727Z,96853.78
2023-09-10T17:17:03.762Z,96861.69
2023-09-10T17:19:31.024Z,96854.06
2023-09-10T17:21:57.602Z,96859.06
2023-09-10T17:24:26.414Z,96854.72
2023-09-10T17:26:55.426Z,96861.75
2023-09-10T17:29:24.470Z,96859.78
2023-09-10T17:31:51.569Z,96855.22
2023-09-10T17:34:18.199Z,96864.25
2023-09-10T17:36:47.009Z,96863.19
2023-09-10T17:39:13.607Z,96862.13
2023-09-10T17:41:41.473Z,96862.97
2023-09-10T17:44:10.429Z,96866.88
2023-09-10T17:46:37.164Z,96867.06
2023-09-10T17:49:04.105Z,96863.22
2023-09-10T17:51:30.775Z,96864.34
2023-09-10T17:53:57.457Z,96864.31
2023-09-10T17:56:24.284Z,96869.72
2023-09-10T17:58:53.349Z,96864.47
2023-09-10T18:01:20.037Z,96876.59
2023-09-10T18:03:46.898Z,96877.34
2023-09-10T18:06:16.057Z,96874.88
2023-09-10T18:08:42.653Z,96888.81
2023-09-10T18:11:09.328Z,96884.41
2023-09-10T18:13:41.892Z,96889.53
2023-09-10T18:16:09.670Z,96894.63
2023-09-10T18:18:38.530Z,96900.03
2023-09-10T18:21:09.672Z,96907.09
2023-09-10T18:23:37.768Z,96904.91
2023-09-10T18:26:06.180Z,96910.47
2023-09-10T18:28:32.783Z,96909.91
2023-09-10T18:31:04.310Z,96921.75
2023-09-10T18:33:33.918Z,96924.31
2023-09-10T18:36:03.345Z,96917.56
2023-09-10T18:38:30.620Z,96920.84
2023-09-10T18:40:57.320Z,96914.06
2023-09-10T18:43:23.919Z,96924.94
2023-09-10T18:45:55.067Z,96928.97
2023-09-10T18:48:24.668Z,96935.81
2023-09-10T18:50:51.522Z,96928.78
2023-09-10T18:53:21.616Z,96935.81
2023-09-10T18:55:48.415Z,96944.63
2023-09-10T18:58:14.989Z,96939.34
2023-09-10T19:00:46.476Z,96943.13
2023-09-10T19:03:13.266Z,96947.16
2023-09-10T19:05:43.727Z,96953.94
2023-09-10T19:08:13.120Z,96949.16
2023-09-10T19:10:39.786Z,96950.44
2023-09-10T19:13:06.799Z,96951.97
2023-09-10T19:15:41.784Z,96955.75
2023-09-10T19:18:08.559Z,96948.66
2023-09-10T19:20:35.471Z,96953.47
2023-09-10T19:23:02.160Z,96952.19
2023-09-10T19:25:33.734Z,96955.47
2023-09-10T19:28:01.803Z,96962.00
2023-09-10T19:30:29.578Z,96959.44
2023-09-10T19:32:56.280Z,96959.19
2023-09-10T19:35:23.674Z,96958.69
2023-09-10T19:37:53.757Z,96962.75
2023-09-10T19:40:25.710Z,96961.22
2023-09-10T19:42:52.541Z,96957.41
2023-09-10T19:45:19.578Z,96958.94
2023-09-10T19:47:48.836Z,96958.16
2023-09-10T19:50:18.025Z,96948.34
2023-09-10T19:52:44.640Z,96951.34
2023-09-10T19:55:11.885Z,96957.63
2023-09-10T19:57:43.418Z,96962.16
2023-09-10T20:00:10.710Z,96959.41
2023-09-10T20:02:42.385Z,96965.16
2023-09-10T20:05:10.826Z,96961.63
2023-09-10T20:07:42.085Z,96960.34
2023-09-10T20:10:09.786Z,96969.63
2023-09-10T20:12:38.856Z,96968.38
2023-09-10T20:15:10.208Z,96960.28
2023-09-10T20:17:36.902Z,96964.50
2023-09-10T20:20:06.031Z,96958.94
2023-09-10T20:22:32.663Z,96956.16
2023-09-10T20:24:59.348Z,96970.47
2023-09-10T20:27:29.114Z,96958.59
2023-09-10T20:30:00.525Z,96963.31
2023-09-10T20:32:29.527Z,96960.53
2023-09-10T20:34:56.251Z,96964.59
2023-09-10T20:37:25.157Z,96970.84
2023-09-10T20:39:57.868Z,96969.09
2023-09-10T20:42:28.308Z,96961.75
2023-09-10T20:44:57.566Z,96962.94
2023-09-10T20:47:27.199Z,96958.09
2023-09-10T20:49:58.485Z,96961.81
2023-09-10T20:52:29.248Z,96955.50
2023-09-10T20:54:58.493Z,96961.19
2023-09-10T20:57:29.848Z,96962.38
2023-09-10T20:59:59.061Z,96964.06
2023-09-10T21:02:26.119Z,96962.56
2023-09-10T21:04:52.880Z,96962.63
2023-09-10T21:07:19.893Z,96962.06
2023-09-10T21:09:47.024Z,96973.81
2023-09-10T21:12:13.708Z,96971.28
2023-09-10T21:14:45.445Z,96970.25
2023-09-10T21:17:19.242Z,96965.50
2023-09-10T21:19:49.094Z,96960.16
2023-09-10T21:22:15.703Z,96966.31
2023-09-10T21:24:44.625Z,96962.78
2023-09-10T21:27:11.285Z,96959.06
2023-09-10T21:29:40.629Z,96961.31
2023-09-10T21:32:09.790Z,96964.06
2023-09-10T21:34:36.450Z,96955.28
2023-09-10T21:37:03.509Z,96962.47
2023-09-10T21:39:35.208Z,96963.44
2023-09-10T21:42:04.368Z,96964.56
2023-09-10T21:44:33.306Z,96963.81
2023-09-10T21:47:00.424Z,96955.50
2023-09-10T21:49:27.062Z,96955.97
2023-09-10T21:51:57.149Z,96963.19
2023-09-10T21:54:27.282Z,96966.16
2023-09-10T21:56:54.092Z,96957.75
2023-09-10T21:59:23.113Z,96964.16
2023-09-10T22:01:51.843Z,96964.31
2023-09-10T22:04:21.110Z,96966.78
2023-09-10T22:06:47.932Z,96956.31
2023-09-10T22:09:14.480Z,96965.75
2023-09-10T22:11:41.165Z,96966.44
2023-09-10T22:14:12.616Z,96959.41
2023-09-10T22:16:42.280Z,96959.06
2023-09-10T22:19:10.281Z,96953.09
2023-09-10T22:21:36.980Z,96958.13
2023-09-10T22:24:05.953Z,96950.31
2023-09-10T22:26:34.902Z,96956.22
2023-09-10T22:29:01.492Z,96956.22
2023-09-10T22:31:28.258Z,96953.75
2023-09-10T22:33:54.940Z,96954.22
2023-09-10T22:36:35.134Z,96956.94
2023-09-10T22:39:08.728Z,96958.97
2023-09-10T22:41:35.725Z,96957.47
2023-09-10T22:44:04.893Z,96960.69
2023-09-10T22:46:31.678Z,96958.00
2023-09-10T22:49:00.636Z,96959.47
2023-09-10T22:51:29.780Z,96960.94
2023-09-10T22:53:58.642Z,96954.72
2023-09-10T22:56:26.271Z,96952.44
2023-09-10T22:58:53.065Z,96957.47
2023-09-10T23:01:21.763Z,96954.44
2023-09-10T23:03:52.111Z,96962.22
2023-09-10T23:06:21.449Z,96964.03
2023-09-10T23:08:50.616Z,96963.22
2023-09-10T23:11:19.450Z,96960.28
2023-09-10T23:13:48.522Z,96958.69
2023-09-10T23:16:15.178Z,96962.56
2023-09-10T23:18:44.122Z,96955.38
2023-09-10T23:21:15.675Z,96951.09
2023-09-10T23:23:44.206Z,96962.50
2023-09-10T23:26:11.031Z,96957.59
2023-09-10T23:28:42.759Z,96960.00
2023-09-10T23:31:09.731Z,96956.72
2023-09-10T23:33:39.056Z,96954.22
2023-09-10T23:36:08.248Z,96955.94
2023-09-10T23:38:39.723Z,96949.69
2023-09-10T23:41:09.471Z,96944.47
2023-09-10T23:43:38.688Z,96944.28
2023-09-10T23:46:06.335Z,96949.59
2023-09-10T23:48:35.405Z,96946.94
2023-09-10T23:51:06.280Z,96938.09
2023-09-10T23:53:33.006Z,96932.03
2023-09-10T23:55:59.673Z,96929.09
2023-09-10T23:58:26.341Z,96927.09
